Time;durP1;ratioP1;P1;durP2;ratioP2;P2;SDS_P1;SDS_P2;PMS_P1;PMS_P2;Temp;Humidity;BMP_temperature;BMP_pressure;BME280_temperature;BME280_humidity;BME280_pressure;Samples;Min_cycle;Max_cycle;Signal;HPM_P1;HPM_P2
2022/11/02 00:01:45;;;;;;;9.37;3.80;;;;;;;6.53;100.00;100565.88;5014030;28;20673;-68
2022/11/02 00:04:10;;;;;;;8.40;3.67;;;;;;;6.60;100.00;100564.81;5032105;28;20219;-69
2022/11/02 00:06:36;;;;;;;9.37;3.80;;;;;;;6.52;100.00;100563.38;5054153;28;20214;-69
2022/11/02 00:09:02;;;;;;;5.20;3.60;;;;;;;6.55;100.00;100560.69;5054466;28;20180;-69
2022/11/02 00:11:27;;;;;;;6.33;3.17;;;;;;;6.50;100.00;100560.88;5037682;28;20307;-69
2022/11/02 00:13:52;;;;;;;6.03;3.10;;;;;;;6.55;100.00;100569.22;5058724;28;20671;-69
2022/11/02 00:16:19;;;;;;;13.33;4.40;;;;;;;6.33;100.00;100566.47;5053089;28;20219;-72
2022/11/02 00:18:47;;;;;;;11.27;4.20;;;;;;;6.47;100.00;100563.50;5042062;28;20272;-69
2022/11/02 00:21:16;;;;;;;9.57;3.80;;;;;;;6.57;100.00;100562.34;5035593;28;20254;-69
2022/11/02 00:23:42;;;;;;;9.47;3.50;;;;;;;6.58;100.00;100558.88;5021771;28;20190;-69
2022/11/02 00:26:08;;;;;;;9.00;3.27;;;;;;;6.68;100.00;100558.63;5051556;28;20180;-69
2022/11/02 00:28:34;;;;;;;8.60;3.53;;;;;;;6.81;100.00;100554.81;5068943;28;20255;-69
2022/11/02 00:30:59;;;;;;;7.87;3.40;;;;;;;6.84;100.00;100554.69;5036716;28;20276;-67
2022/11/02 00:33:25;;;;;;;12.27;3.70;;;;;;;6.89;100.00;100555.38;5052464;28;20177;-67
2022/11/02 00:35:51;;;;;;;9.23;4.47;;;;;;;6.87;100.00;100562.28;5053714;28;20665;-67
2022/11/02 00:38:16;;;;;;;7.13;3.13;;;;;;;6.87;100.00;100551.19;5034996;28;20539;-67
2022/11/02 00:40:42;;;;;;;10.80;3.40;;;;;;;6.82;100.00;100553.06;5048772;28;20224;-68
2022/11/02 00:43:07;;;;;;;16.33;3.30;;;;;;;6.58;100.00;100550.41;5063723;28;20295;-68
2022/11/02 00:45:32;;;;;;;8.37;3.10;;;;;;;6.69;100.00;100557.75;5072405;28;20173;-68
2022/11/02 00:47:57;;;;;;;9.93;3.07;;;;;;;6.70;100.00;100551.72;5039297;28;20589;-68
2022/11/02 00:50:23;;;;;;;7.30;3.33;;;;;;;6.78;100.00;100554.88;5045845;28;21000;-67
2022/11/02 00:52:48;;;;;;;10.67;3.80;;;;;;;6.76;100.00;100557.50;5063159;28;20216;-68
2022/11/02 00:55:14;;;;;;;12.43;3.77;;;;;;;6.61;100.00;100552.84;5053253;28;20209;-68
2022/11/02 00:57:39;;;;;;;9.17;4.03;;;;;;;6.65;100.00;100559.56;5044403;28;20271;-69
2022/11/02 01:00:07;;;;;;;14.30;3.77;;;;;;;6.56;100.00;100559.81;5027750;28;20517;-68
2022/11/02 01:02:33;;;;;;;10.50;3.37;;;;;;;6.61;100.00;100565.63;5068007;28;20211;-70
2022/11/02 01:04:58;;;;;;;9.17;4.07;;;;;;;6.67;100.00;100565.44;5035428;28;20189;-68
2022/11/02 01:07:24;;;;;;;8.90;3.20;;;;;;;6.74;100.00;100561.81;5052590;28;20268;-69
2022/11/02 01:09:49;;;;;;;7.97;3.43;;;;;;;6.74;100.00;100564.38;5053287;28;20188;-68
2022/11/02 01:12:15;;;;;;;9.83;3.80;;;;;;;6.60;100.00;100562.25;5057885;28;20232;-68
2022/11/02 01:14:40;;;;;;;8.07;4.10;;;;;;;6.68;100.00;100564.56;5068529;28;20206;-68
2022/11/02 01:17:05;;;;;;;8.30;3.73;;;;;;;6.50;100.00;100573.66;5052530;28;20185;-68
2022/11/02 01:19:31;;;;;;;7.60;3.63;;;;;;;6.62;100.00;100565.59;5052835;28;20196;-68
2022/11/02 01:21:56;;;;;;;11.33;4.50;;;;;;;6.49;100.00;100564.28;5057512;28;20735;-68
2022/11/02 01:24:21;;;;;;;6.97;3.53;;;;;;;6.58;100.00;100571.66;5053475;28;20611;-68
2022/11/02 01:26:51;;;;;;;13.00;4.47;;;;;;;6.57;100.00;100567.47;5034588;28;20180;-68
2022/11/02 01:29:16;;;;;;;17.80;3.67;;;;;;;6.51;100.00;100560.00;5035532;28;20195;-68
2022/11/02 01:31:42;;;;;;;16.90;4.33;;;;;;;6.47;100.00;100560.94;5055429;28;20220;-69
2022/11/02 01:34:07;;;;;;;7.60;3.83;;;;;;;6.43;100.00;100554.25;5054939;28;20197;-68
2022/11/02 01:36:32;;;;;;;8.00;3.90;;;;;;;6.48;100.00;100565.19;5052110;28;20852;-68
2022/11/02 01:38:57;;;;;;;8.40;4.20;;;;;;;6.52;100.00;100564.19;5052674;28;20191;-68
2022/11/02 01:41:23;;;;;;;7.90;3.93;;;;;;;6.55;100.00;100559.00;5035277;28;20224;-68
2022/11/02 01:43:53;;;;;;;7.40;4.10;;;;;;;6.59;100.00;100559.75;5040174;28;20181;-68
2022/11/02 01:46:26;;;;;;;10.83;4.37;;;;;;;6.42;100.00;100561.06;5044036;28;20183;-69
2022/11/02 01:49:03;;;;;;;8.30;3.77;;;;;;;6.24;100.00;100561.63;5034757;28;20172;-68
2022/11/02 01:51:34;;;;;;;8.33;3.93;;;;;;;6.47;100.00;100555.84;5038645;28;20289;-68
2022/11/02 01:54:04;;;;;;;14.13;4.40;;;;;;;6.43;100.00;100544.03;5034856;28;20675;-68
2022/11/02 01:56:32;;;;;;;9.93;4.23;;;;;;;6.32;100.00;100546.09;5034236;28;20215;-69
2022/11/02 01:59:02;;;;;;;7.13;4.03;;;;;;;6.39;100.00;100547.56;5014738;28;20639;-68
2022/11/02 02:01:28;;;;;;;10.73;4.37;;;;;;;6.48;100.00;100539.63;5035494;28;20227;-68
2022/11/02 02:03:56;;;;;;;10.83;4.20;;;;;;;6.55;100.00;100540.25;5039087;28;20189;-68
2022/11/02 02:06:22;;;;;;;12.10;4.30;;;;;;;6.43;100.00;100532.09;5051531;28;20189;-68
2022/11/02 02:08:49;;;;;;;8.60;4.17;;;;;;;6.41;100.00;100541.53;5052030;28;20307;-68
2022/11/02 02:11:29;;;;;;;12.97;4.30;;;;;;;6.38;100.00;100538.22;5033313;28;20231;-68
2022/11/02 02:13:59;;;;;;;12.07;4.33;;;;;;;6.48;100.00;100533.69;5056259;28;20196;-69
2022/11/02 02:16:51;;;;;;;8.53;3.90;;;;;;;6.46;100.00;100536.25;5033454;28;20548;-68
2022/11/02 02:19:34;;;;;;;9.90;4.17;;;;;;;6.37;100.00;100526.34;5034001;28;20345;-69
2022/11/02 02:22:29;;;;;;;11.67;4.30;;;;;;;6.40;100.00;100531.34;5039752;28;20238;-68
2022/11/02 02:25:07;;;;;;;11.83;3.93;;;;;;;6.41;100.00;100531.31;5022082;28;20234;-68
2022/11/02 02:28:22;;;;;;;11.93;3.43;;;;;;;6.38;100.00;100540.78;5034030;28;20184;-68
2022/11/02 02:30:55;;;;;;;7.47;3.70;;;;;;;6.54;100.00;100531.75;4980184;28;20242;-68
2022/11/02 02:33:29;;;;;;;13.07;3.93;;;;;;;6.39;100.00;100530.50;5018413;28;20189;-69
2022/11/02 02:36:04;;;;;;;15.70;4.77;;;;;;;6.13;100.00;100521.06;5033560;28;20259;-69
2022/11/02 02:38:34;;;;;;;8.40;4.13;;;;;;;6.10;100.00;100526.25;5032923;28;20658;-69
2022/11/02 02:41:24;;;;;;;13.70;4.43;;;;;;;6.07;100.00;100523.81;5031241;28;20268;-69
2022/11/02 02:43:53;;;;;;;9.97;4.17;;;;;;;6.36;100.00;100519.53;5039152;28;20204;-69
2022/11/02 02:46:24;;;;;;;18.43;4.87;;;;;;;6.43;100.00;100524.41;5042558;28;20267;-70
2022/11/02 02:48:53;;;;;;;12.47;4.17;;;;;;;6.48;100.00;100524.28;5039281;28;20674;-70
2022/11/02 02:51:25;;;;;;;12.23;3.97;;;;;;;6.50;100.00;100537.88;5032257;28;20356;-68
2022/11/02 02:54:05;;;;;;;12.17;4.50;;;;;;;6.58;100.00;100535.06;5038677;28;20184;-69
2022/11/02 02:56:36;;;;;;;12.77;3.87;;;;;;;6.55;100.00;100535.16;5033034;28;20188;-69
2022/11/02 02:59:08;;;;;;;10.13;3.60;;;;;;;6.43;100.00;100541.47;5022381;28;20169;-68
2022/11/02 03:01:38;;;;;;;11.00;3.90;;;;;;;6.37;100.00;100536.56;5035537;28;20243;-69
2022/11/02 03:04:03;;;;;;;14.80;4.13;;;;;;;6.46;100.00;100541.38;5036397;28;20184;-69
2022/11/02 03:06:32;;;;;;;13.03;3.90;;;;;;;6.77;100.00;100543.84;5051032;28;20192;-68
2022/11/02 03:09:33;;;;;;;15.43;4.50;;;;;;;6.77;100.00;100538.72;5033274;28;20184;-68
2022/11/02 03:12:17;;;;;;;8.97;4.13;;;;;;;7.08;100.00;100532.63;5038832;28;20298;-69
2022/11/02 03:15:10;;;;;;;13.63;4.27;;;;;;;7.08;100.00;100531.75;5039131;28;20194;-68
2022/11/02 03:18:07;;;;;;;10.80;3.60;;;;;;;6.91;100.00;100532.34;5032726;28;20165;-69
2022/11/02 03:20:39;;;;;;;9.00;3.50;;;;;;;7.13;100.00;100536.72;5045006;28;20231;-68
2022/11/02 03:23:18;;;;;;;10.20;3.73;;;;;;;7.23;100.00;100531.28;5044829;28;20232;-68
2022/11/02 03:26:03;;;;;;;13.93;4.47;;;;;;;7.12;100.00;100530.78;5033090;28;20190;-67
2022/11/02 03:28:44;;;;;;;12.13;4.20;;;;;;;7.27;100.00;100542.25;5032974;28;20181;-67
2022/11/02 03:31:24;;;;;;;10.10;3.63;;;;;;;7.19;100.00;100537.34;5032132;28;20442;-69
2022/11/02 03:34:14;;;;;;;8.27;3.70;;;;;;;7.14;100.00;100534.13;5038370;28;20647;-68
2022/11/02 03:36:46;;;;;;;11.53;3.63;;;;;;;7.35;100.00;100542.78;5032628;28;20391;-68
2022/11/02 03:39:16;;;;;;;12.50;4.20;;;;;;;7.25;100.00;100539.72;5032976;28;20272;-68
2022/11/02 03:41:44;;;;;;;8.73;3.47;;;;;;;7.18;100.00;100537.41;5036388;28;20224;-68
2022/11/02 03:44:18;;;;;;;9.50;3.63;;;;;;;7.11;100.00;100531.69;5035368;28;20200;-69
2022/11/02 03:46:46;;;;;;;8.37;3.63;;;;;;;7.06;100.00;100523.31;5032328;28;20270;-68
2022/11/02 03:49:16;;;;;;;9.57;3.53;;;;;;;7.29;100.00;100535.31;5032779;28;20196;-68
2022/11/02 03:51:43;;;;;;;7.83;3.50;;;;;;;7.59;100.00;100545.38;5036087;28;20208;-69
2022/11/02 03:54:12;;;;;;;8.90;3.40;;;;;;;7.65;100.00;100541.78;5035296;28;20206;-68
2022/11/02 03:56:45;;;;;;;11.03;3.47;;;;;;;7.67;100.00;100547.72;5033166;28;20360;-69
2022/11/02 03:59:12;;;;;;;11.03;3.80;;;;;;;7.78;100.00;100545.59;5064649;28;20185;-68
2022/11/02 04:01:46;;;;;;;11.63;3.77;;;;;;;7.74;100.00;100547.44;5028611;28;20270;-68
2022/11/02 04:04:12;;;;;;;11.67;3.87;;;;;;;7.87;100.00;100557.22;5056402;28;20177;-68
2022/11/02 04:06:40;;;;;;;12.40;3.40;;;;;;;7.78;100.00;100555.84;5036086;28;20191;-68
2022/11/02 04:09:05;;;;;;;12.30;4.13;;;;;;;7.91;100.00;100556.22;5036021;28;20264;-69
2022/11/02 04:19:43;;;;;;;9.87;3.47;;;;;;;7.70;100.00;100574.03;5054241;28;20227;-68
2022/11/02 04:27:37;;;;;;;10.50;3.70;;;;;;;7.55;100.00;100554.94;5054160;28;20271;-68
2022/11/02 04:30:03;;;;;;;12.10;3.57;;;;;;;7.39;100.00;100554.63;5050198;28;20275;-73
2022/11/02 04:35:12;;;;;;;8.47;3.93;;;;;;;7.42;100.00;100569.84;5042545;28;20239;-68
2022/11/02 04:40:26;;;;;;;14.13;4.70;;;;;;;7.26;100.00;100576.38;5046559;28;20271;-68
2022/11/02 04:42:52;;;;;;;9.13;4.07;;;;;;;6.98;100.00;100579.81;5065234;28;20201;-68
2022/11/02 04:45:17;;;;;;;6.17;3.80;;;;;;;6.94;100.00;100573.16;5035443;28;20481;-68
2022/11/02 04:47:43;;;;;;;9.93;3.83;;;;;;;6.94;100.00;100578.25;5041498;28;20630;-68
2022/11/02 04:50:09;;;;;;;10.83;3.83;;;;;;;7.01;100.00;100578.88;5025923;28;20169;-69
2022/11/02 04:52:34;;;;;;;10.70;4.40;;;;;;;6.96;100.00;100579.06;5051302;28;20649;-69
2022/11/02 04:54:59;;;;;;;9.27;4.23;;;;;;;6.90;100.00;100582.63;5035211;28;20274;-69
2022/11/02 04:57:25;;;;;;;11.07;3.80;;;;;;;6.89;100.00;100603.16;5042398;28;20203;-68
2022/11/02 04:59:50;;;;;;;14.97;4.70;;;;;;;6.76;100.00;100595.84;5057966;28;20180;-69
2022/11/02 05:02:15;;;;;;;14.43;4.90;;;;;;;6.79;100.00;100593.19;5058282;28;20365;-68
2022/11/02 05:04:41;;;;;;;11.27;4.43;;;;;;;6.59;100.00;100593.81;5053537;28;20176;-69
2022/11/02 05:07:07;;;;;;;11.77;4.33;;;;;;;6.55;100.00;100601.59;5034739;28;20566;-68
2022/11/02 05:09:32;;;;;;;13.33;4.70;;;;;;;6.67;100.00;100600.41;5034594;28;20188;-67
2022/11/02 05:11:58;;;;;;;10.77;3.70;;;;;;;6.75;100.00;100601.03;5057921;28;20232;-69
2022/11/02 05:14:23;;;;;;;15.80;4.60;;;;;;;6.72;100.00;100608.78;5021325;28;20236;-67
2022/11/02 05:16:48;;;;;;;9.60;4.20;;;;;;;6.71;100.00;100599.41;5052486;28;20185;-67
2022/11/02 05:19:14;;;;;;;13.43;4.27;;;;;;;6.47;100.00;100609.50;5053096;28;20224;-68
2022/11/02 05:21:39;;;;;;;14.83;4.63;;;;;;;6.45;100.00;100611.28;5055227;28;20261;-68
2022/11/02 05:24:05;;;;;;;13.00;3.90;;;;;;;6.48;100.00;100607.81;5055685;28;20268;-69
2022/11/02 05:26:30;;;;;;;13.77;4.37;;;;;;;6.41;100.00;100623.31;5052580;28;20191;-68
2022/11/02 05:28:55;;;;;;;11.70;4.07;;;;;;;6.44;100.00;100617.28;5046799;28;20180;-68
2022/11/02 05:31:20;;;;;;;8.97;4.00;;;;;;;6.28;100.00;100624.53;5052829;28;20215;-68
2022/11/02 05:33:46;;;;;;;8.77;4.60;;;;;;;6.08;100.00;100632.75;5040244;28;20228;-69
2022/11/02 05:36:11;;;;;;;12.10;5.17;;;;;;;6.16;100.00;100641.03;5034023;28;20253;-69
2022/11/02 05:38:36;;;;;;;16.60;4.87;;;;;;;6.12;100.00;100642.81;5015842;28;20592;-68
2022/11/02 05:41:02;;;;;;;11.60;5.03;;;;;;;6.09;100.00;100645.47;5037501;28;20274;-70
2022/11/02 05:43:27;;;;;;;9.87;4.70;;;;;;;6.13;100.00;100647.06;5051443;28;20212;-69
2022/11/02 05:45:54;;;;;;;11.93;4.30;;;;;;;6.18;100.00;100653.75;5059203;28;20343;-69
2022/11/02 05:48:20;;;;;;;10.40;5.13;;;;;;;6.09;100.00;100652.28;5052014;28;20192;-70
2022/11/02 05:50:46;;;;;;;13.63;5.63;;;;;;;6.09;100.00;100653.16;5030375;28;20309;-69
2022/11/02 05:53:11;;;;;;;15.00;4.20;;;;;;;5.98;100.00;100648.31;5062132;28;20254;-69
2022/11/02 05:55:37;;;;;;;17.03;5.13;;;;;;;6.10;100.00;100661.63;5052318;28;20205;-69
2022/11/02 05:58:02;;;;;;;11.67;5.20;;;;;;;5.98;100.00;100663.63;5059713;28;20729;-69
2022/11/02 06:00:27;;;;;;;13.33;5.10;;;;;;;6.03;100.00;100660.97;5045366;28;20250;-68
2022/11/02 06:02:57;;;;;;;11.90;4.73;;;;;;;6.00;100.00;100663.59;5064133;28;20206;-68
2022/11/02 06:05:24;;;;;;;18.07;4.97;;;;;;;5.97;100.00;100661.94;5034173;28;20195;-68
2022/11/02 06:07:49;;;;;;;16.07;5.53;;;;;;;5.90;100.00;100662.13;5033702;28;20715;-68
2022/11/02 06:10:14;;;;;;;12.50;5.40;;;;;;;5.92;100.00;100673.16;5043446;28;20194;-71
2022/11/02 06:12:40;;;;;;;10.43;5.23;;;;;;;5.98;100.00;100671.31;5065954;28;20259;-69
2022/11/02 06:15:05;;;;;;;14.63;4.93;;;;;;;5.99;100.00;100672.13;5051781;28;20551;-68
2022/11/02 06:17:38;;;;;;;11.30;5.23;;;;;;;5.92;100.00;100679.09;5033615;28;20598;-68
2022/11/02 06:20:04;;;;;;;11.50;4.43;;;;;;;5.91;100.00;100681.69;5026140;28;20180;-68
2022/11/02 06:22:29;;;;;;;9.27;4.73;;;;;;;5.90;100.00;100685.13;5049821;28;20341;-69
2022/11/02 06:24:55;;;;;;;11.47;5.30;;;;;;;5.76;100.00;100688.84;5051770;28;20206;-69
2022/11/02 06:27:20;;;;;;;17.20;5.57;;;;;;;5.87;100.00;100696.25;5051679;28;20185;-69
2022/11/02 06:29:45;;;;;;;18.70;5.93;;;;;;;6.03;100.00;100696.72;5051664;28;20178;-68
2022/11/02 06:32:10;;;;;;;13.13;4.73;;;;;;;6.14;100.00;100699.84;5057043;28;20251;-69
2022/11/02 06:34:36;;;;;;;12.17;5.87;;;;;;;6.02;100.00;100694.22;5051674;28;20638;-69
2022/11/02 06:37:01;;;;;;;14.27;5.53;;;;;;;6.04;100.00;100706.06;5051192;28;20236;-69
2022/11/02 06:39:26;;;;;;;11.37;4.93;;;;;;;6.05;100.00;100706.91;5050832;28;20221;-69
2022/11/02 06:41:51;;;;;;;12.47;4.80;;;;;;;6.17;100.00;100709.13;5047609;28;20705;-69
2022/11/02 06:44:17;;;;;;;11.57;5.57;;;;;;;6.19;100.00;100719.31;5034571;28;20196;-68
2022/11/02 06:46:42;;;;;;;13.03;5.07;;;;;;;6.35;100.00;100720.59;5061175;28;20611;-69
2022/11/02 06:49:07;;;;;;;13.43;5.30;;;;;;;6.54;100.00;100727.75;5033652;28;20183;-69
2022/11/02 06:51:33;;;;;;;12.17;5.93;;;;;;;6.39;100.00;100729.84;5052735;28;20286;-68
2022/11/02 06:53:58;;;;;;;19.73;6.00;;;;;;;6.69;100.00;100731.59;5054999;28;20242;-68
2022/11/02 06:56:23;;;;;;;12.80;5.63;;;;;;;6.73;100.00;100726.31;5050435;28;20184;-68
2022/11/02 06:58:48;;;;;;;21.97;5.57;;;;;;;6.69;100.00;100729.03;5066634;28;20193;-69
2022/11/02 07:01:14;;;;;;;15.53;5.53;;;;;;;6.76;100.00;100726.25;5050478;28;20311;-68
2022/11/02 07:03:39;;;;;;;13.33;5.30;;;;;;;6.75;100.00;100728.88;5057169;28;20217;-69
2022/11/02 07:06:05;;;;;;;22.97;5.77;;;;;;;6.96;100.00;100727.41;5050972;28;20185;-69
2022/11/02 07:08:30;;;;;;;14.67;4.40;;;;;;;7.20;100.00;100730.94;5050632;28;20306;-69
2022/11/02 07:10:56;;;;;;;13.03;6.07;;;;;;;7.35;100.00;100739.88;5030222;28;20227;-69
2022/11/02 07:13:21;;;;;;;11.87;5.40;;;;;;;7.33;100.00;100743.34;5059555;28;20276;-71
2022/11/02 07:15:50;;;;;;;23.93;5.63;;;;;;;7.59;100.00;100739.97;5051052;28;20185;-69
2022/11/02 07:18:16;;;;;;;17.87;5.30;;;;;;;7.75;100.00;100750.56;5032539;28;20250;-69
2022/11/02 07:20:41;;;;;;;14.77;4.50;;;;;;;8.11;100.00;100744.28;5045750;28;20220;-69
2022/11/02 07:23:07;;;;;;;12.97;5.17;;;;;;;8.39;100.00;100745.00;5061475;28;20660;-69
2022/11/02 07:25:32;;;;;;;9.40;4.33;;;;;;;8.71;100.00;100740.47;5051060;28;20242;-69
2022/11/02 07:28:00;;;;;;;11.87;3.67;;;;;;;9.09;100.00;100746.81;5050929;28;20185;-69
2022/11/02 07:30:26;;;;;;;13.03;4.37;;;;;;;9.49;100.00;100747.84;5026054;28;20220;-69
2022/11/02 07:32:52;;;;;;;16.67;5.80;;;;;;;9.85;100.00;100754.97;5037566;28;20502;-69
2022/11/02 07:35:17;;;;;;;12.73;4.30;;;;;;;9.97;100.00;100751.91;5054473;28;20236;-69
2022/11/02 07:37:43;;;;;;;10.63;3.13;;;;;;;10.10;100.00;100754.78;5051831;28;20224;-69
2022/11/02 07:40:11;;;;;;;12.33;3.47;;;;;;;10.40;100.00;100759.53;5025259;28;20651;-68
2022/11/02 07:42:44;;;;;;;13.40;3.03;;;;;;;10.26;100.00;100761.84;5047406;28;20217;-70
2022/11/02 07:45:10;;;;;;;12.87;3.27;;;;;;;10.29;100.00;100757.38;5051973;28;20169;-60
2022/11/02 07:47:43;;;;;;;9.63;2.67;;;;;;;10.38;100.00;100763.94;5053441;28;20188;-57
2022/11/02 07:50:09;;;;;;;11.03;3.17;;;;;;;10.53;100.00;100764.16;5043898;28;20264;-58
2022/11/02 07:52:34;;;;;;;11.30;2.87;;;;;;;10.78;100.00;100758.78;5037385;28;20277;-56
2022/11/02 07:54:59;;;;;;;11.47;2.80;;;;;;;10.85;100.00;100762.72;5054042;28;20209;-58
2022/11/02 07:57:25;;;;;;;11.83;3.27;;;;;;;10.95;100.00;100757.97;5055780;28;20185;-57
2022/11/02 07:59:50;;;;;;;9.30;2.60;;;;;;;11.13;100.00;100759.72;5054531;28;20252;-57
2022/11/02 08:02:15;;;;;;;8.03;2.57;;;;;;;11.12;100.00;100760.63;4999484;28;20214;-57
2022/11/02 08:04:41;;;;;;;5.53;2.60;;;;;;;11.17;100.00;100767.31;5054251;28;20181;-57
2022/11/02 08:07:06;;;;;;;9.40;2.73;;;;;;;11.27;100.00;100771.94;5053404;28;20243;-58
2022/11/02 08:09:31;;;;;;;10.33;3.00;;;;;;;11.30;100.00;100773.56;5053891;28;20268;-71
2022/11/02 08:11:57;;;;;;;6.87;2.40;;;;;;;11.40;100.00;100773.94;5025273;28;20687;-71
2022/11/02 08:14:22;;;;;;;9.10;2.60;;;;;;;11.37;100.00;100776.69;5052011;28;20215;-70
2022/11/02 08:16:50;;;;;;;10.77;2.90;;;;;;;11.41;100.00;100783.34;5042390;28;20225;-70
2022/11/02 08:19:16;;;;;;;12.33;3.20;;;;;;;11.59;100.00;100776.50;5034785;28;20675;-71
2022/11/02 08:21:41;;;;;;;9.57;2.37;;;;;;;11.76;100.00;100775.69;5042627;28;20229;-70
2022/11/02 08:24:07;;;;;;;8.70;2.70;;;;;;;11.54;100.00;100786.19;5054732;28;20531;-71
2022/11/02 08:26:33;;;;;;;8.80;2.80;;;;;;;11.45;100.00;100777.97;5054673;28;20671;-71
2022/11/02 08:28:58;;;;;;;7.00;2.97;;;;;;;11.51;100.00;100778.59;5056931;28;20174;-70
2022/11/02 08:31:23;;;;;;;9.77;3.10;;;;;;;11.69;100.00;100775.13;4985733;28;20260;-71
2022/11/02 08:33:48;;;;;;;13.73;2.90;;;;;;;11.62;100.00;100777.19;5034643;28;20181;-70
2022/11/02 08:36:14;;;;;;;9.23;3.37;;;;;;;11.51;100.00;100774.28;5052535;28;20354;-70
2022/11/02 08:38:39;;;;;;;18.00;3.43;;;;;;;11.61;100.00;100785.81;5034689;28;20186;-70
2022/11/02 08:41:04;;;;;;;9.77;2.67;;;;;;;11.83;100.00;100789.91;5046011;28;20228;-70
2022/11/02 08:43:30;;;;;;;12.13;3.80;;;;;;;12.04;100.00;100787.25;5043669;28;20205;-71
2022/11/02 08:45:59;;;;;;;7.70;2.73;;;;;;;12.22;100.00;100780.34;5055028;28;20186;-70
2022/11/02 08:48:25;;;;;;;13.43;2.87;;;;;;;12.96;100.00;100784.25;5052721;28;20581;-70
2022/11/02 08:50:50;;;;;;;11.53;2.73;;;;;;;13.88;100.00;100782.66;5025275;28;20237;-71
2022/11/02 08:53:16;;;;;;;8.17;2.53;;;;;;;14.83;100.00;100789.16;5047612;28;20252;-70
2022/11/02 08:55:41;;;;;;;8.43;2.50;;;;;;;16.10;100.00;100788.03;5033015;28;20636;-71
2022/11/02 08:58:07;;;;;;;7.27;2.57;;;;;;;17.99;94.17;100793.88;5040921;28;20557;-71
2022/11/02 09:00:34;;;;;;;4.40;2.03;;;;;;;19.25;82.18;100797.28;5025191;28;20225;-71
2022/11/02 09:03:11;;;;;;;6.63;2.33;;;;;;;20.11;68.21;100787.66;5028938;28;20305;-69
2022/11/02 09:05:42;;;;;;;8.43;2.30;;;;;;;20.94;66.33;100798.03;5035269;28;20297;-71
2022/11/02 09:08:13;;;;;;;10.30;2.40;;;;;;;21.34;59.76;100805.97;5034382;28;20268;-71
2022/11/02 09:10:41;;;;;;;8.37;2.37;;;;;;;21.80;55.97;100807.06;5029948;28;20233;-72
2022/11/02 09:13:09;;;;;;;11.07;2.50;;;;;;;22.32;51.91;100809.28;5046389;28;20695;-71
2022/11/02 09:15:36;;;;;;;6.70;2.42;;;;;;;22.90;49.68;100817.91;5035115;28;20192;-71
2022/11/02 09:18:01;;;;;;;7.70;2.30;;;;;;;22.71;49.17;100824.91;5034705;28;20182;-71
2022/11/02 09:20:27;;;;;;;6.07;2.42;;;;;;;21.91;48.55;100821.81;5045464;28;20630;-72
2022/11/02 09:22:52;;;;;;;8.35;2.33;;;;;;;21.68;54.77;100816.88;5048125;28;20294;-72
2022/11/02 09:25:18;;;;;;;8.82;3.17;;;;;;;21.27;53.65;100809.13;5053058;28;20184;-70
2022/11/02 09:27:43;;;;;;;6.43;2.45;;;;;;;20.31;57.73;100809.47;5053119;28;20209;-71
2022/11/02 09:30:10;;;;;;;9.43;2.80;;;;;;;19.86;62.27;100812.38;5043217;28;20185;-69
2022/11/02 09:32:35;;;;;;;7.37;2.50;;;;;;;19.82;60.42;100811.78;5055752;28;20542;-70
2022/11/02 09:35:07;;;;;;;7.23;2.83;;;;;;;18.59;69.43;100824.13;5052867;28;20177;-70
2022/11/02 09:37:33;;;;;;;6.43;2.23;;;;;;;18.21;75.93;100831.31;5052023;28;20182;-71
2022/11/02 09:39:58;;;;;;;6.40;2.13;;;;;;;18.48;72.23;100827.56;5063847;28;20192;-69
2022/11/02 09:42:31;;;;;;;6.00;1.87;;;;;;;17.77;74.58;100831.03;5056281;28;20688;-71
2022/11/02 09:45:26;;;;;;;10.80;3.00;;;;;;;16.50;85.04;100833.88;5035113;28;20174;-69
2022/11/02 09:48:26;;;;;;;10.53;3.03;;;;;;;15.13;94.86;100837.41;4975876;28;20223;-71
2022/11/02 09:50:58;;;;;;;9.73;2.23;;;;;;;15.77;94.20;100828.22;4952046;28;20309;-70
2022/11/02 09:53:47;;;;;;;6.00;2.30;;;;;;;17.20;86.24;100822.94;4961370;28;20604;-69
2022/11/02 09:56:15;;;;;;;8.73;2.37;;;;;;;18.60;73.16;100829.22;4955008;28;20199;-74
2022/11/02 09:58:44;;;;;;;7.83;2.50;;;;;;;18.86;66.08;100831.59;4971434;28;20294;-70
2022/11/02 10:01:27;;;;;;;8.33;2.47;;;;;;;17.90;77.35;100836.19;4940309;28;20272;-68
2022/11/02 10:04:24;;;;;;;6.13;2.00;;;;;;;16.51;83.66;100844.16;4965528;28;20208;-70
2022/11/02 10:07:13;;;;;;;6.90;2.80;;;;;;;15.40;92.75;100849.53;4967848;28;20401;-69
2022/11/02 10:09:47;;;;;;;10.20;2.67;;;;;;;15.01;96.07;100854.53;4953455;28;20192;-70
2022/11/02 10:12:26;;;;;;;7.97;2.60;;;;;;;14.77;98.35;100854.28;4944510;28;20244;-71
2022/11/02 10:15:03;;;;;;;13.30;2.40;;;;;;;14.55;98.35;100852.09;4950296;28;20328;-70
2022/11/02 10:17:33;;;;;;;9.43;2.87;;;;;;;14.45;100.00;100849.22;4953906;28;20291;-70
2022/11/02 10:20:04;;;;;;;12.83;2.93;;;;;;;14.51;100.00;100843.69;4970364;28;20259;-69
2022/11/02 10:22:36;;;;;;;7.77;2.10;;;;;;;14.58;100.00;100838.94;4934946;29;20267;-69
2022/11/02 10:25:06;;;;;;;8.53;2.60;;;;;;;14.73;100.00;100849.38;5018776;28;20721;-69
2022/11/02 10:27:37;;;;;;;8.83;2.60;;;;;;;14.73;97.08;100849.38;5025526;28;20529;-69
2022/11/02 10:30:05;;;;;;;7.57;2.67;;;;;;;14.89;95.37;100854.44;5026995;28;20201;-71
2022/11/02 10:32:33;;;;;;;12.27;2.37;;;;;;;15.07;96.46;100858.50;5029476;28;20201;-56
2022/11/02 10:35:02;;;;;;;9.37;2.37;;;;;;;15.45;95.25;100854.44;5048302;28;20268;-56
2022/11/02 10:38:08;;;;;;;11.00;2.53;;;;;;;15.71;90.56;100854.56;5050634;28;20229;-74
2022/11/02 10:41:00;;;;;;;8.63;2.57;;;;;;;16.29;87.65;100855.13;5045408;28;20236;-71
2022/11/02 10:43:37;;;;;;;7.20;2.00;;;;;;;16.65;86.32;100844.97;5042025;28;20201;-71
2022/11/02 10:46:13;;;;;;;9.17;2.33;;;;;;;16.71;78.21;100840.19;5034348;28;20242;-73
2022/11/02 10:49:05;;;;;;;5.00;2.07;;;;;;;16.48;75.79;100846.94;5032864;28;20212;-69
2022/11/02 10:51:30;;;;;;;6.30;2.13;;;;;;;16.58;78.76;100844.53;5031031;28;20245;-70
2022/11/02 10:53:55;;;;;;;8.63;2.67;;;;;;;16.44;82.80;100838.50;5055468;28;20186;-70
2022/11/02 10:56:32;;;;;;;6.30;2.00;;;;;;;16.41;80.38;100845.69;5050441;28;20658;-71
2022/11/02 10:59:16;;;;;;;6.63;2.47;;;;;;;16.06;81.01;100836.75;5026391;28;20180;-70
2022/11/02 11:01:57;;;;;;;15.90;2.93;;;;;;;15.82;85.77;100842.56;5010538;28;20217;-71
2022/11/02 11:04:28;;;;;;;7.00;2.13;;;;;;;15.89;87.16;100832.66;5029225;28;20185;-72
2022/11/02 11:06:57;;;;;;;10.10;2.30;;;;;;;15.57;85.38;100827.75;5032089;28;20222;-71
2022/11/02 11:09:29;;;;;;;6.50;2.00;;;;;;;15.48;83.40;100825.75;5051069;28;20207;-71
2022/11/02 11:11:57;;;;;;;10.13;2.57;;;;;;;15.63;83.84;100811.78;5038768;28;20220;-71
2022/11/02 11:14:25;;;;;;;8.03;2.20;;;;;;;15.63;80.99;100816.97;5033591;28;20537;-71
2022/11/02 11:16:52;;;;;;;11.00;2.40;;;;;;;15.88;82.12;100823.19;5032871;28;20199;-72
2022/11/02 11:19:33;;;;;;;6.73;2.03;;;;;;;16.22;78.75;100822.72;5032142;28;20170;-70
2022/11/02 11:21:59;;;;;;;8.40;2.60;;;;;;;16.38;76.61;100822.53;5033432;28;20221;-70
2022/11/02 11:24:31;;;;;;;9.90;2.97;;;;;;;16.29;77.36;100830.00;5049000;28;20188;-70
2022/11/02 11:27:19;;;;;;;9.83;2.80;;;;;;;16.13;77.55;100817.22;5031714;28;20530;-70
2022/11/02 11:29:45;;;;;;;8.47;2.00;;;;;;;16.51;74.36;100823.38;5050334;28;20184;-70
2022/11/02 11:32:18;;;;;;;8.30;2.60;;;;;;;16.45;73.47;100821.19;5016446;28;20232;-70
2022/11/02 11:34:49;;;;;;;7.90;2.10;;;;;;;16.81;69.65;100819.59;5032792;28;20178;-70
2022/11/02 11:37:16;;;;;;;8.03;2.27;;;;;;;17.00;71.91;100816.56;5032034;28;20274;-70
2022/11/02 11:39:45;;;;;;;6.90;2.13;;;;;;;17.08;67.16;100816.03;5023173;28;20232;-71
2022/11/02 11:42:20;;;;;;;6.60;2.13;;;;;;;17.05;68.82;100814.47;5019055;28;20267;-72
2022/11/02 11:44:55;;;;;;;10.50;2.30;;;;;;;17.45;65.48;100816.00;5033152;28;20185;-70
2022/11/02 11:47:26;;;;;;;9.60;2.33;;;;;;;17.16;60.00;100824.09;5022920;28;20238;-72
2022/11/02 11:49:53;;;;;;;10.37;1.97;;;;;;;17.07;62.75;100814.38;5028375;28;20205;-72